Time;durP1;ratioP1;P1;durP2;ratioP2;P2;SDS_P1;SDS_P2;PMS_P1;PMS_P2;Temp;Humidity;BMP_temperature;BMP_pressure;BME280_temperature;BME280_humidity;BME280_pressure;Samples;Min_cycle;Max_cycle;Signal;HPM_P1;HPM_P2
2021/12/23 00:01:38;;;;;;;21.75;17.17;;;-1.10;99.90;;;;;;4934803;29;20047;-65
2021/12/23 00:04:04;;;;;;;24.15;17.80;;;-1.00;99.90;;;;;;4949910;28;20142;-65
2021/12/23 00:06:31;;;;;;;21.95;16.80;;;-1.00;99.90;;;;;;4965213;28;20055;-65
2021/12/23 00:08:59;;;;;;;22.90;17.90;;;-1.00;99.90;;;;;;4949592;28;20078;-65
2021/12/23 00:11:26;;;;;;;23.10;17.17;;;-1.00;99.90;;;;;;4950354;28;20086;-65
2021/12/23 00:14:07;;;;;;;21.77;17.98;;;-1.00;99.90;;;;;;4950741;28;20043;-65
2021/12/23 00:19:23;;;;;;;20.65;16.27;;;-0.90;99.90;;;;;;4949718;28;20055;-65
2021/12/23 00:24:35;;;;;;;24.75;16.85;;;-0.90;99.90;;;;;;4950468;28;20051;-64
2021/12/23 00:27:01;;;;;;;21.17;17.45;;;-0.90;99.90;;;;;;4948678;28;20059;-59
2021/12/23 00:29:27;;;;;;;23.65;17.40;;;-0.90;99.90;;;;;;4949299;28;20039;-65
2021/12/23 00:31:54;;;;;;;23.60;16.75;;;-0.90;99.90;;;;;;4949503;28;20090;-66
2021/12/23 00:34:20;;;;;;;20.08;15.52;;;-0.80;99.90;;;;;;4951194;28;20466;-65
2021/12/23 00:36:46;;;;;;;21.50;16.70;;;-0.90;99.90;;;;;;4949264;28;20055;-65
2021/12/23 00:39:14;;;;;;;22.40;16.70;;;-0.80;99.90;;;;;;4949742;28;20058;-66
2021/12/23 00:41:43;;;;;;;21.90;17.50;;;-0.80;99.90;;;;;;4948486;28;20112;-64
2021/12/23 00:44:10;;;;;;;22.88;17.92;;;-0.80;99.90;;;;;;4951683;28;20050;-59
2021/12/23 00:46:36;;;;;;;22.80;17.80;;;-0.80;99.90;;;;;;4951692;28;20422;-65
2021/12/23 00:49:02;;;;;;;22.25;17.08;;;-0.80;99.90;;;;;;4949482;28;20455;-65
2021/12/23 00:51:29;;;;;;;23.35;16.60;;;-0.80;99.90;;;;;;4950371;28;20063;-65
2021/12/23 00:54:04;;;;;;;20.95;16.38;;;-0.80;99.90;;;;;;4965421;28;20059;-65
2021/12/23 00:56:32;;;;;;;23.95;17.73;;;-0.80;99.90;;;;;;4946327;28;20451;-65
2021/12/23 00:58:58;;;;;;;24.23;17.83;;;-0.70;99.90;;;;;;4933435;29;20132;-66
2021/12/23 01:01:24;;;;;;;23.63;18.98;;;-0.70;99.90;;;;;;4948950;28;20047;-65
2021/12/23 01:03:50;;;;;;;23.73;18.20;;;-0.70;99.90;;;;;;4932724;29;20399;-65
2021/12/23 01:06:17;;;;;;;20.85;17.45;;;-0.70;99.90;;;;;;4916661;29;20059;-65
2021/12/23 01:08:43;;;;;;;22.48;18.08;;;-0.70;99.90;;;;;;4964774;28;20058;-65
2021/12/23 01:11:09;;;;;;;23.90;17.20;;;-0.60;99.90;;;;;;4931459;29;20047;-66
2021/12/23 01:13:37;;;;;;;22.60;16.75;;;-0.60;99.90;;;;;;4949167;28;20402;-65
2021/12/23 01:16:13;;;;;;;24.42;17.40;;;-0.60;99.90;;;;;;4902389;29;20054;-65
2021/12/23 01:18:43;;;;;;;22.30;18.95;;;-0.60;99.90;;;;;;4946465;28;20063;-65
2021/12/23 01:21:16;;;;;;;25.48;18.55;;;-0.60;99.90;;;;;;4947132;28;20134;-65
2021/12/23 01:23:56;;;;;;;21.20;17.25;;;-0.60;99.90;;;;;;4945256;28;20080;-65
2021/12/23 01:26:23;;;;;;;23.35;18.20;;;-0.60;99.90;;;;;;4932695;29;20514;-65
2021/12/23 01:28:58;;;;;;;25.13;18.80;;;-0.60;99.90;;;;;;4949173;29;20066;-65
2021/12/23 01:31:27;;;;;;;23.00;18.58;;;-0.60;99.90;;;;;;4948452;28;20055;-65
2021/12/23 01:33:54;;;;;;;23.75;18.25;;;-0.50;99.90;;;;;;4946371;29;20134;-65
2021/12/23 01:36:22;;;;;;;22.80;17.95;;;-0.50;99.90;;;;;;4944753;28;20059;-65
2021/12/23 01:38:49;;;;;;;22.15;17.85;;;-0.60;99.90;;;;;;4964795;28;20047;-65
2021/12/23 01:41:15;;;;;;;23.25;19.25;;;-0.50;99.90;;;;;;4946538;28;20051;-66
2021/12/23 01:43:41;;;;;;;26.65;19.05;;;-0.50;99.90;;;;;;4965315;28;20059;-65
2021/12/23 01:46:08;;;;;;;24.42;19.90;;;-0.50;99.90;;;;;;4949249;28;20060;-65
2021/12/23 01:48:34;;;;;;;23.40;18.65;;;-0.40;99.90;;;;;;4947305;28;20043;-65
2021/12/23 01:51:01;;;;;;;25.85;19.58;;;-0.50;99.90;;;;;;4945501;28;20073;-65
2021/12/23 01:53:27;;;;;;;28.15;20.58;;;-0.40;99.90;;;;;;4948588;28;20040;-65
2021/12/23 01:55:54;;;;;;;23.90;18.77;;;-0.50;99.90;;;;;;4948667;28;20055;-65
2021/12/23 01:58:20;;;;;;;22.98;18.55;;;-0.40;99.90;;;;;;4948659;28;20507;-62
2021/12/23 02:00:49;;;;;;;27.05;18.70;;;-0.40;99.90;;;;;;4947305;28;20047;-64
2021/12/23 02:03:16;;;;;;;23.05;19.17;;;-0.50;99.90;;;;;;4948874;28;20079;-65
2021/12/23 02:05:43;;;;;;;25.33;19.65;;;-0.50;99.90;;;;;;4949440;28;20403;-66
2021/12/23 02:08:09;;;;;;;28.55;20.20;;;-0.50;99.90;;;;;;4948540;28;20055;-65
2021/12/23 02:10:37;;;;;;;27.77;17.83;;;-0.50;99.90;;;;;;4930350;29;20454;-65
2021/12/23 02:13:03;;;;;;;23.70;19.10;;;-0.50;99.90;;;;;;4948200;28;20055;-65
2021/12/23 02:15:30;;;;;;;24.25;19.23;;;-0.50;99.90;;;;;;4931229;29;20331;-65
2021/12/23 02:17:56;;;;;;;29.23;20.30;;;-0.50;99.90;;;;;;4949105;29;20051;-65
2021/12/23 02:20:25;;;;;;;27.77;19.38;;;-0.50;99.90;;;;;;4949882;28;20461;-66
2021/12/23 02:22:51;;;;;;;23.45;18.02;;;-0.50;99.90;;;;;;4952261;28;20039;-65
2021/12/23 02:25:17;;;;;;;26.48;19.80;;;-0.50;99.90;;;;;;4951774;28;20074;-59
2021/12/23 02:27:44;;;;;;;31.00;18.98;;;-0.50;99.90;;;;;;4936418;29;20514;-59
2021/12/23 02:30:18;;;;;;;24.05;19.73;;;-0.40;99.90;;;;;;4953350;28;20199;-65
2021/12/23 02:32:47;;;;;;;25.55;19.83;;;-0.50;99.90;;;;;;4951257;28;20087;-65
2021/12/23 02:35:16;;;;;;;24.95;19.95;;;-0.50;99.90;;;;;;4950186;28;20051;-65
2021/12/23 02:37:43;;;;;;;24.25;20.05;;;-0.50;99.90;;;;;;4951083;28;20039;-65
2021/12/23 02:40:11;;;;;;;27.42;19.80;;;-0.50;99.90;;;;;;4950985;28;20051;-66
2021/12/23 02:42:38;;;;;;;30.30;19.58;;;-0.50;99.90;;;;;;4951177;28;20082;-65
2021/12/23 02:45:09;;;;;;;24.83;19.73;;;-0.50;99.90;;;;;;4952114;28;20051;-65
2021/12/23 02:47:36;;;;;;;24.20;19.35;;;-0.50;99.90;;;;;;4965806;28;20050;-65
2021/12/23 02:50:04;;;;;;;25.50;20.27;;;-0.60;99.90;;;;;;4935667;28;20062;-65
2021/12/23 02:52:31;;;;;;;27.40;21.35;;;-0.50;99.90;;;;;;4967179;28;20051;-65
2021/12/23 02:54:58;;;;;;;27.10;19.10;;;-0.50;99.90;;;;;;4936393;29;20054;-65
2021/12/23 02:57:24;;;;;;;28.60;20.27;;;-0.50;99.90;;;;;;4950294;28;20047;-65
2021/12/23 02:59:51;;;;;;;26.55;21.50;;;-0.50;99.90;;;;;;4966897;28;20055;-65
2021/12/23 03:02:17;;;;;;;24.98;20.83;;;-0.50;99.90;;;;;;4952528;28;20086;-65
2021/12/23 03:04:43;;;;;;;27.40;20.95;;;-0.50;99.90;;;;;;4952419;28;20087;-66
2021/12/23 03:07:09;;;;;;;29.15;20.92;;;-0.50;99.90;;;;;;4967901;28;20106;-65
2021/12/23 03:09:35;;;;;;;25.10;19.83;;;-0.50;99.90;;;;;;4950248;28;20422;-65
2021/12/23 03:12:02;;;;;;;25.35;19.45;;;-0.50;99.90;;;;;;4951196;28;20442;-65
2021/12/23 03:14:28;;;;;;;25.45;20.08;;;-0.50;99.90;;;;;;4935110;28;20055;-65
2021/12/23 03:16:54;;;;;;;28.63;21.13;;;-0.50;99.90;;;;;;4951878;29;20058;-65
2021/12/23 03:19:20;;;;;;;25.13;18.42;;;-0.50;99.90;;;;;;4951066;28;20589;-65
2021/12/23 03:21:46;;;;;;;28.92;19.95;;;-0.50;99.90;;;;;;4950796;29;20062;-65
2021/12/23 03:24:16;;;;;;;23.73;18.70;;;-0.50;99.90;;;;;;4967560;28;20039;-66
2021/12/23 03:26:43;;;;;;;28.35;19.85;;;-0.50;99.90;;;;;;4966244;28;20047;-65
2021/12/23 03:29:11;;;;;;;26.02;18.25;;;-0.50;99.90;;;;;;4950452;28;20054;-65
2021/12/23 03:31:38;;;;;;;25.33;20.02;;;-0.50;99.90;;;;;;4964868;28;20055;-65
2021/12/23 03:34:05;;;;;;;27.02;20.00;;;-0.50;99.90;;;;;;4951953;29;20530;-65
2021/12/23 03:36:31;;;;;;;26.10;21.10;;;-0.40;99.90;;;;;;4934617;29;20058;-65
2021/12/23 03:38:58;;;;;;;29.27;20.52;;;-0.50;99.90;;;;;;4950602;28;20039;-65
2021/12/23 03:41:24;;;;;;;28.33;19.95;;;-0.50;99.90;;;;;;4965944;28;20451;-65
2021/12/23 03:43:50;;;;;;;29.80;20.10;;;-0.50;99.90;;;;;;4952212;28;20051;-65
2021/12/23 03:46:17;;;;;;;27.05;19.98;;;-0.50;99.90;;;;;;4966512;28;20129;-65
2021/12/23 03:48:43;;;;;;;25.15;20.15;;;-0.50;99.90;;;;;;4948682;28;20056;-65
2021/12/23 03:51:09;;;;;;;24.75;19.58;;;-0.50;99.90;;;;;;4934882;29;20039;-65
2021/12/23 03:53:35;;;;;;;28.92;19.38;;;-0.40;99.90;;;;;;4950308;28;20074;-65
2021/12/23 03:56:02;;;;;;;29.60;21.80;;;-0.40;99.90;;;;;;4950204;28;20159;-65
2021/12/23 03:58:28;;;;;;;25.25;19.50;;;-0.40;99.90;;;;;;4934258;28;20494;-66
2021/12/23 04:00:54;;;;;;;25.23;19.73;;;-0.40;99.90;;;;;;4950871;28;20059;-65
2021/12/23 04:03:20;;;;;;;27.60;19.75;;;-0.30;99.90;;;;;;4952485;29;20102;-65
2021/12/23 04:05:47;;;;;;;26.13;19.38;;;-0.40;99.90;;;;;;4948290;28;20055;-65
2021/12/23 04:08:13;;;;;;;25.30;19.23;;;-0.40;99.90;;;;;;4951466;29;20493;-65
2021/12/23 04:10:39;;;;;;;26.67;19.35;;;-0.30;99.90;;;;;;4949772;28;20055;-65
2021/12/23 04:13:05;;;;;;;29.20;20.40;;;-0.30;99.90;;;;;;4949472;28;20122;-65
2021/12/23 04:15:31;;;;;;;25.17;20.45;;;-0.30;99.90;;;;;;4949960;28;20497;-65
2021/12/23 04:17:57;;;;;;;22.83;19.02;;;-0.30;99.90;;;;;;4949438;28;20481;-65
2021/12/23 04:20:31;;;;;;;22.75;18.38;;;-0.30;99.90;;;;;;4933555;29;20117;-65
2021/12/23 04:22:58;;;;;;;25.90;19.52;;;-0.30;99.90;;;;;;4951008;28;20051;-65
2021/12/23 04:25:27;;;;;;;27.88;19.60;;;-0.20;99.90;;;;;;4949965;28;20039;-65
2021/12/23 04:27:57;;;;;;;26.35;19.35;;;-0.20;99.90;;;;;;4933136;29;20069;-65
2021/12/23 04:30:25;;;;;;;26.60;19.50;;;-0.20;99.90;;;;;;4949728;28;20047;-65
2021/12/23 04:32:51;;;;;;;24.88;19.45;;;-0.20;99.90;;;;;;4950346;28;20047;-65
2021/12/23 04:35:17;;;;;;;27.95;20.48;;;-0.20;99.90;;;;;;4951081;28;20047;-66
2021/12/23 04:37:43;;;;;;;26.08;19.55;;;-0.20;99.90;;;;;;4950809;28;20485;-59
2021/12/23 04:40:11;;;;;;;25.35;19.00;;;-0.20;99.90;;;;;;4934636;29;20039;-58
2021/12/23 04:42:38;;;;;;;29.48;20.48;;;-0.20;99.90;;;;;;4933702;29;20137;-59
2021/12/23 04:45:06;;;;;;;27.70;20.38;;;-0.10;99.90;;;;;;4949203;28;20047;-65
2021/12/23 04:47:33;;;;;;;30.63;21.23;;;-0.10;99.90;;;;;;4948765;28;20053;-65
2021/12/23 04:49:59;;;;;;;28.17;20.83;;;-0.10;99.90;;;;;;4950841;28;20054;-59
2021/12/23 04:52:27;;;;;;;24.92;20.15;;;-0.10;99.90;;;;;;4949272;28;20047;-63
2021/12/23 04:54:53;;;;;;;23.15;19.15;;;-0.10;99.90;;;;;;4951177;28;20051;-64
2021/12/23 04:57:19;;;;;;;23.60;18.42;;;-0.10;99.90;;;;;;4948888;28;20058;-63
2021/12/23 04:59:46;;;;;;;26.50;19.70;;;-0.10;99.90;;;;;;4950140;28;20462;-57
2021/12/23 05:02:12;;;;;;;24.70;19.38;;;-0.10;99.90;;;;;;4948823;28;20050;-56
2021/12/23 05:04:38;;;;;;;25.80;20.13;;;-0.10;99.90;;;;;;4949545;28;20066;-63
2021/12/23 05:07:04;;;;;;;25.88;19.98;;;-0.10;99.90;;;;;;4950208;29;20458;-62
2021/12/23 05:09:30;;;;;;;25.50;20.08;;;-0.10;99.90;;;;;;4948883;28;20089;-63
2021/12/23 05:11:56;;;;;;;26.50;19.98;;;-0.10;99.90;;;;;;4948121;28;20047;-63
2021/12/23 05:14:22;;;;;;;27.67;20.10;;;-0.10;99.90;;;;;;4949645;28;20495;-62
2021/12/23 05:16:48;;;;;;;26.95;20.08;;;-0.10;99.90;;;;;;4947814;28;20058;-62
2021/12/23 05:19:15;;;;;;;26.70;20.15;;;-0.10;99.90;;;;;;4948065;28;20058;-63
2021/12/23 05:21:41;;;;;;;28.20;20.77;;;-0.10;99.90;;;;;;4963000;28;20502;-63
2021/12/23 05:24:08;;;;;;;25.33;19.05;;;-0.10;99.90;;;;;;4950173;28;20086;-63
2021/12/23 05:26:34;;;;;;;26.35;20.00;;;-0.10;99.90;;;;;;4948779;28;20047;-63
2021/12/23 05:29:00;;;;;;;26.52;20.88;;;-0.10;99.90;;;;;;4948994;28;20065;-63
2021/12/23 05:31:26;;;;;;;29.15;21.33;;;-0.10;99.90;;;;;;4948736;28;20528;-63
2021/12/23 05:33:53;;;;;;;25.83;20.75;;;-0.10;99.90;;;;;;4962948;28;20082;-64
2021/12/23 05:36:19;;;;;;;28.20;21.08;;;-0.10;99.90;;;;;;4948843;28;20058;-64
2021/12/23 05:38:45;;;;;;;25.92;20.58;;;-0.10;99.90;;;;;;4949541;29;20055;-64
2021/12/23 05:41:11;;;;;;;27.00;19.98;;;-0.10;99.90;;;;;;4964891;28;20057;-63
2021/12/23 05:43:37;;;;;;;26.25;20.92;;;-0.10;99.90;;;;;;4949473;28;20047;-64
2021/12/23 05:46:03;;;;;;;26.88;21.20;;;-0.10;99.90;;;;;;4948432;28;20051;-64
2021/12/23 05:48:30;;;;;;;28.95;21.13;;;-0.10;99.90;;;;;;4948408;28;20131;-64
2021/12/23 05:50:57;;;;;;;26.27;20.05;;;-0.10;99.90;;;;;;4962256;28;20132;-63
2021/12/23 05:53:23;;;;;;;27.52;21.70;;;-0.10;99.90;;;;;;4947801;28;20094;-64
2021/12/23 05:55:49;;;;;;;27.85;20.55;;;-0.10;99.90;;;;;;4948509;28;20070;-64
2021/12/23 05:58:16;;;;;;;30.92;21.67;;;-0.10;99.90;;;;;;4946596;28;20055;-64
2021/12/23 06:00:42;;;;;;;28.73;21.40;;;-0.10;99.90;;;;;;4964130;28;20128;-64
2021/12/23 06:03:08;;;;;;;26.35;20.88;;;0.00;99.90;;;;;;4946824;28;20043;-64
2021/12/23 06:05:34;;;;;;;26.55;19.75;;;-0.10;99.90;;;;;;4930284;28;20535;-63
2021/12/23 06:08:00;;;;;;;29.55;22.67;;;-0.10;99.90;;;;;;4948514;28;20487;-64
2021/12/23 06:10:26;;;;;;;29.08;21.38;;;-0.10;99.90;;;;;;4948426;28;20043;-64
2021/12/23 06:12:53;;;;;;;33.60;23.38;;;0.00;99.90;;;;;;4948490;28;20055;-63
2021/12/23 06:15:19;;;;;;;25.77;20.67;;;0.00;99.90;;;;;;4945467;28;20078;-64
2021/12/23 06:17:45;;;;;;;27.63;21.73;;;0.00;99.90;;;;;;4932022;29;20138;-64
2021/12/23 06:20:12;;;;;;;32.70;22.77;;;0.00;99.90;;;;;;4916579;29;20051;-64
2021/12/23 06:22:38;;;;;;;29.88;22.38;;;0.00;99.90;;;;;;4947371;28;20066;-64
2021/12/23 06:25:08;;;;;;;29.75;21.45;;;0.00;99.90;;;;;;4931947;28;20059;-63
2021/12/23 06:27:35;;;;;;;26.35;21.20;;;0.00;99.90;;;;;;4948425;28;20058;-64
2021/12/23 06:30:03;;;;;;;31.77;21.98;;;0.00;99.90;;;;;;4944883;29;20081;-64
2021/12/23 06:32:29;;;;;;;30.63;21.52;;;0.00;99.90;;;;;;4963728;28;20066;-64
2021/12/23 06:34:55;;;;;;;26.92;21.35;;;0.00;99.90;;;;;;4931790;28;20098;-63
2021/12/23 06:37:21;;;;;;;28.85;22.70;;;0.00;99.90;;;;;;4963749;28;20051;-63
2021/12/23 06:39:47;;;;;;;31.88;23.45;;;0.00;99.90;;;;;;4947952;28;20085;-64
2021/12/23 06:42:13;;;;;;;31.25;22.70;;;0.00;99.90;;;;;;4947461;28;20107;-63
2021/12/23 06:44:39;;;;;;;31.02;22.40;;;0.00;99.90;;;;;;4931672;29;20098;-64
2021/12/23 06:47:06;;;;;;;29.20;23.25;;;0.10;99.90;;;;;;4962358;28;20086;-57
2021/12/23 06:49:33;;;;;;;28.00;21.60;;;0.10;99.90;;;;;;4948954;28;20044;-59
2021/12/23 06:52:00;;;;;;;29.20;21.25;;;0.10;99.90;;;;;;4946877;28;20069;-63
2021/12/23 06:54:26;;;;;;;29.15;22.70;;;0.10;99.90;;;;;;4947965;28;20047;-63
2021/12/23 06:56:52;;;;;;;31.95;23.52;;;0.10;99.90;;;;;;4964158;28;20130;-63
2021/12/23 06:59:19;;;;;;;31.20;22.73;;;0.10;99.90;;;;;;4945502;28;20625;-64
2021/12/23 07:01:48;;;;;;;32.10;22.58;;;0.10;99.90;;;;;;4946837;28;20058;-64
2021/12/23 07:04:22;;;;;;;31.88;22.77;;;0.10;99.90;;;;;;4947616;28;20462;-64
2021/12/23 07:06:59;;;;;;;31.63;22.38;;;0.10;99.90;;;;;;4949949;28;20051;-64
2021/12/23 07:09:25;;;;;;;28.95;22.65;;;0.10;99.90;;;;;;4935551;29;20047;-64
2021/12/23 07:11:51;;;;;;;32.25;24.15;;;0.10;99.90;;;;;;4951377;28;20062;-63
2021/12/23 07:14:17;;;;;;;32.85;24.55;;;0.10;99.90;;;;;;4935327;29;20499;-56
2021/12/23 07:16:43;;;;;;;30.35;24.20;;;0.10;99.90;;;;;;4951122;28;20065;-58
2021/12/23 07:19:10;;;;;;;29.27;22.92;;;0.10;99.90;;;;;;4951965;29;20066;-57
2021/12/23 07:21:36;;;;;;;32.25;23.35;;;0.10;99.90;;;;;;4952477;28;20070;-57
2021/12/23 07:24:03;;;;;;;32.45;24.08;;;0.10;99.90;;;;;;4951115;28;20053;-57
2021/12/23 07:26:29;;;;;;;34.45;24.65;;;0.10;99.90;;;;;;4950017;28;20047;-57
2021/12/23 07:28:55;;;;;;;33.50;23.92;;;0.10;99.90;;;;;;4952504;28;20049;-56
2021/12/23 07:31:21;;;;;;;29.70;23.35;;;0.10;99.90;;;;;;4947321;28;20098;-56
2021/12/23 07:33:48;;;;;;;29.98;22.45;;;0.10;99.90;;;;;;4935029;29;20502;-54
2021/12/23 07:36:17;;;;;;;32.53;23.45;;;0.10;99.90;;;;;;4947307;29;20055;-56
2021/12/23 07:38:43;;;;;;;33.17;24.00;;;0.10;99.90;;;;;;4968301;28;20051;-55
2021/12/23 07:41:10;;;;;;;33.60;23.92;;;0.10;99.90;;;;;;4952928;29;20047;-56
2021/12/23 07:46:03;;;;;;;32.58;24.52;;;0.20;99.90;;;;;;4951378;29;20058;-56
2021/12/23 07:48:33;;;;;;;32.38;25.02;;;0.10;99.90;;;;;;4952769;28;20149;-53
2021/12/23 07:51:01;;;;;;;30.55;24.85;;;0.10;99.90;;;;;;4952655;29;20051;-51
2021/12/23 07:53:27;;;;;;;36.92;26.95;;;0.10;99.90;;;;;;4967089;28;20047;-56
2021/12/23 07:55:53;;;;;;;30.85;24.23;;;0.10;99.90;;;;;;4950892;29;20054;-56
2021/12/23 07:58:20;;;;;;;34.97;25.95;;;0.20;99.90;;;;;;4952731;29;20553;-54
2021/12/23 08:00:46;;;;;;;36.10;27.25;;;0.20;99.90;;;;;;4966783;28;20051;-56
2021/12/23 08:03:13;;;;;;;37.75;26.50;;;0.20;99.90;;;;;;4951929;28;20070;-54
2021/12/23 08:05:41;;;;;;;35.20;26.50;;;0.20;99.90;;;;;;4934618;29;20141;-54
2021/12/23 08:08:07;;;;;;;35.70;27.42;;;0.20;99.90;;;;;;4951259;28;20392;-56
2021/12/23 08:10:33;;;;;;;37.33;27.27;;;0.20;99.90;;;;;;4951227;29;20047;-49
2021/12/23 08:13:01;;;;;;;33.97;26.98;;;0.20;99.90;;;;;;4951161;29;20590;-56
2021/12/23 08:15:27;;;;;;;37.58;28.10;;;0.20;99.90;;;;;;4966129;28;20093;-55
2021/12/23 08:17:53;;;;;;;38.38;29.27;;;0.20;99.90;;;;;;4950183;28;20066;-57
2021/12/23 08:20:20;;;;;;;40.42;29.45;;;0.20;99.90;;;;;;4952072;29;20419;-56
2021/12/23 08:22:47;;;;;;;36.58;26.92;;;0.20;99.90;;;;;;4966603;28;20059;-56
2021/12/23 08:25:14;;;;;;;35.97;27.95;;;0.20;99.90;;;;;;4934642;29;20130;-56
2021/12/23 08:27:42;;;;;;;37.38;28.00;;;0.20;99.90;;;;;;4950196;29;20047;-57
2021/12/23 08:30:10;;;;;;;40.92;29.80;;;0.20;99.90;;;;;;4966810;28;20146;-56
2021/12/23 08:32:37;;;;;;;35.75;28.17;;;0.20;99.90;;;;;;4949718;29;20051;-56
2021/12/23 08:35:04;;;;;;;37.22;28.00;;;0.20;99.90;;;;;;4935959;28;20043;-58
2021/12/23 08:37:30;;;;;;;34.78;27.63;;;0.20;99.90;;;;;;4940187;29;20070;-60
2021/12/23 08:39:56;;;;;;;41.53;30.63;;;0.20;99.90;;;;;;4934643;29;20054;-57
2021/12/23 08:42:23;;;;;;;39.60;29.33;;;0.20;99.90;;;;;;4951189;28;20048;-58
2021/12/23 08:44:50;;;;;;;36.63;27.65;;;0.20;99.90;;;;;;4931577;29;20107;-58
2021/12/23 08:47:16;;;;;;;37.63;28.80;;;0.20;99.90;;;;;;4935283;29;20051;-57
2021/12/23 08:49:44;;;;;;;38.80;29.05;;;0.20;99.90;;;;;;4950177;29;20043;-57
2021/12/23 08:52:11;;;;;;;44.30;31.20;;;0.20;99.90;;;;;;4966143;28;20047;-57
2021/12/23 08:54:37;;;;;;;35.90;29.83;;;0.50;99.90;;;;;;4949914;29;20103;-60
2021/12/23 08:57:05;;;;;;;43.55;30.58;;;0.30;99.90;;;;;;4966145;28;20065;-62
2021/12/23 08:59:31;;;;;;;41.85;31.00;;;0.30;99.90;;;;;;4933916;29;20051;-57
2021/12/23 09:01:58;;;;;;;41.97;31.75;;;0.30;99.90;;;;;;4925457;29;20064;-63
2021/12/23 09:04:24;;;;;;;43.55;31.23;;;0.30;99.90;;;;;;4956545;28;20090;-63
2021/12/23 09:06:51;;;;;;;45.42;31.08;;;0.30;99.90;;;;;;4964331;28;20059;-63
2021/12/23 09:09:18;;;;;;;42.63;32.38;;;0.30;99.90;;;;;;4948175;28;20043;-63
2021/12/23 09:11:45;;;;;;;46.60;33.70;;;0.30;99.90;;;;;;4945380;28;20054;-63
2021/12/23 09:14:11;;;;;;;45.55;32.97;;;0.30;99.90;;;;;;4962694;28;20126;-63
2021/12/23 09:16:38;;;;;;;46.38;33.08;;;0.30;99.90;;;;;;4918770;29;20508;-63
2021/12/23 09:19:05;;;;;;;44.38;32.97;;;0.30;99.90;;;;;;4943358;29;20113;-63
2021/12/23 09:21:31;;;;;;;49.10;35.05;;;0.30;99.90;;;;;;4948770;28;20054;-63
2021/12/23 09:23:57;;;;;;;49.25;34.60;;;0.30;99.90;;;;;;4948495;28;20055;-62
2021/12/23 09:26:24;;;;;;;51.38;35.38;;;0.40;99.90;;;;;;4919109;29;20590;-62
2021/12/23 09:34:02;;;;;;;52.72;35.15;;;0.40;99.90;;;;;;4940921;29;20056;-62
2021/12/23 09:36:28;;;;;;;53.97;36.90;;;0.50;99.90;;;;;;4931149;29;20043;-62
2021/12/23 09:38:54;;;;;;;54.92;36.22;;;0.40;99.90;;;;;;4935212;29;20090;-61
2021/12/23 09:41:21;;;;;;;57.08;39.22;;;0.50;99.90;;;;;;4945292;28;20043;-62
2021/12/23 09:43:50;;;;;;;56.65;38.63;;;0.50;99.90;;;;;;4950056;28;20046;-62
2021/12/23 09:46:20;;;;;;;54.72;36.08;;;0.50;99.90;;;;;;4948073;29;20102;-62
2021/12/23 09:48:47;;;;;;;49.90;36.33;;;0.50;99.90;;;;;;4941919;29;20150;-61
2021/12/23 09:51:17;;;;;;;56.92;38.05;;;0.50;99.90;;;;;;4937474;29;20044;-62
2021/12/23 09:53:46;;;;;;;60.58;38.90;;;0.50;99.90;;;;;;4937116;28;20048;-65
2021/12/23 09:56:13;;;;;;;57.97;39.42;;;0.50;99.90;;;;;;4945650;29;20537;-62
2021/12/23 09:58:39;;;;;;;58.45;38.90;;;0.60;99.90;;;;;;4940366;29;20109;-62
2021/12/23 10:01:07;;;;;;;55.90;37.75;;;0.60;99.90;;;;;;4942299;29;20051;-61
2021/12/23 10:03:34;;;;;;;57.58;38.30;;;0.50;99.90;;;;;;4947979;28;20056;-62
2021/12/23 10:06:01;;;;;;;51.92;35.80;;;0.60;99.90;;;;;;4963670;28;20055;-61
2021/12/23 10:08:28;;;;;;;57.15;38.10;;;0.60;99.90;;;;;;4929951;29;20043;-62
2021/12/23 10:11:04;;;;;;;55.45;37.17;;;0.60;99.90;;;;;;4946570;29;20048;-62
2021/12/23 10:33:28;;;;;;;58.45;38.85;;;0.80;99.90;;;;;;4941378;29;20039;-60
2021/12/23 10:38:44;;;;;;;58.38;38.78;;;0.70;99.90;;;;;;4946105;29;20086;-61
2021/12/23 10:41:14;;;;;;;57.90;39.35;;;0.70;99.90;;;;;;4938290;29;20075;-60
2021/12/23 10:43:42;;;;;;;56.13;37.08;;;0.70;99.90;;;;;;4939994;29;20499;-61
2021/12/23 10:46:39;;;;;;;63.83;40.80;;;0.70;99.90;;;;;;4940397;28;20491;-60
2021/12/23 10:49:29;;;;;;;68.95;42.53;;;0.70;99.90;;;;;;4942796;29;20098;-61
2021/12/23 10:52:05;;;;;;;66.93;42.83;;;0.70;99.90;;;;;;4941311;28;20590;-60
2021/12/23 11:00:21;;;;;;;64.70;41.45;;;0.60;99.90;;;;;;4946405;29;20047;-59
2021/12/23 11:03:10;;;;;;;68.22;42.00;;;0.60;99.90;;;;;;4930025;29;20482;-56
2021/12/23 11:05:44;;;;;;;78.22;44.67;;;0.60;99.90;;;;;;4960029;28;20067;-48
2021/12/23 11:08:34;;;;;;;75.88;46.42;;;0.60;99.90;;;;;;4946420;28;20093;-58
2021/12/23 11:38:40;;;;;;;84.07;47.67;;;0.70;99.90;;;;;;4945269;29;20086;-59
2021/12/23 11:43:58;;;;;;;86.35;49.60;;;0.70;99.90;;;;;;4944775;29;20043;-60
2021/12/23 11:46:35;;;;;;;83.38;46.85;;;0.70;99.90;;;;;;4943999;29;20119;-59
2021/12/23 11:49:06;;;;;;;80.07;45.40;;;0.80;99.90;;;;;;4946495;28;20131;-60
2021/12/23 11:54:12;;;;;;;81.47;46.67;;;0.80;99.90;;;;;;4933104;28;20130;-59
2021/12/23 11:56:58;;;;;;;78.40;46.55;;;0.80;99.90;;;;;;4930225;29;20046;-59
2021/12/23 11:59:25;;;;;;;76.78;45.90;;;0.80;99.90;;;;;;4946445;29;20097;-60
2021/12/23 12:01:54;;;;;;;85.47;46.60;;;0.80;99.90;;;;;;4944999;29;20422;-59
2021/12/23 12:04:35;;;;;;;79.82;45.53;;;0.80;99.90;;;;;;4947777;28;20056;-59
2021/12/23 12:07:22;;;;;;;84.45;47.03;;;0.80;99.90;;;;;;4946858;29;20529;-60
2021/12/23 12:09:54;;;;;;;88.35;49.65;;;0.80;99.90;;;;;;4927110;29;20035;-60
2021/12/23 12:12:20;;;;;;;89.30;48.00;;;0.80;99.90;;;;;;4944482;28;20047;-59
2021/12/23 12:14:47;;;;;;;77.15;46.63;;;0.80;99.90;;;;;;4950786;29;20569;-60
2021/12/23 12:17:25;;;;;;;82.90;48.90;;;0.80;99.90;;;;;;4945554;29;20051;-59
2021/12/23 12:19:52;;;;;;;81.22;46.95;;;0.90;99.90;;;;;;4966962;28;20059;-59
2021/12/23 12:22:44;;;;;;;80.28;46.60;;;0.80;99.90;;;;;;4965492;28;20133;-60
2021/12/23 12:25:25;;;;;;;74.38;45.10;;;0.90;99.90;;;;;;4925690;29;20130;-59
2021/12/23 12:28:10;;;;;;;76.32;46.58;;;0.90;99.90;;;;;;4944687;29;20047;-59
2021/12/23 12:30:41;;;;;;;78.45;45.70;;;0.90;99.90;;;;;;4950543;28;20153;-59
2021/12/23 12:33:39;;;;;;;68.95;42.50;;;1.00;99.90;;;;;;4949559;28;20102;-60
2021/12/23 12:36:12;;;;;;;75.30;45.00;;;1.00;99.90;;;;;;4949582;29;20190;-59
2021/12/23 12:38:41;;;;;;;74.70;45.53;;;1.00;99.90;;;;;;4945528;28;20113;-59
2021/12/23 12:41:12;;;;;;;73.82;42.85;;;1.00;99.90;;;;;;4946970;28;20051;-59
2021/12/23 12:43:44;;;;;;;78.35;46.05;;;1.00;99.90;;;;;;4944170;29;20039;-59
2021/12/23 12:46:22;;;;;;;76.20;43.53;;;1.00;99.90;;;;;;4944175;28;20059;-61
2021/12/23 12:48:58;;;;;;;73.45;42.55;;;1.00;99.90;;;;;;4930815;29;20102;-59
2021/12/23 12:51:36;;;;;;;72.72;43.80;;;1.10;99.90;;;;;;4943507;28;20035;-59
2021/12/23 12:54:31;;;;;;;80.22;44.42;;;1.10;99.90;;;;;;4946361;29;20039;-59
2021/12/23 12:57:06;;;;;;;72.78;42.47;;;1.00;99.90;;;;;;4960565;28;20061;-59
2021/12/23 12:59:38;;;;;;;75.40;42.45;;;1.10;99.90;;;;;;4948837;29;20126;-59
2021/12/23 13:02:23;;;;;;;69.90;44.47;;;1.10;99.90;;;;;;4948784;29;20058;-59
2021/12/23 13:05:08;;;;;;;68.57;42.55;;;1.10;99.90;;;;;;4957531;28;20481;-58
2021/12/23 13:07:55;;;;;;;65.47;41.55;;;1.10;99.90;;;;;;4945545;28;20047;-59
2021/12/23 13:10:41;;;;;;;68.15;42.58;;;1.10;99.90;;;;;;4960714;28;20303;-60
2021/12/23 13:13:32;;;;;;;67.90;43.20;;;1.10;99.90;;;;;;4945916;28;20406;-59
2021/12/23 13:16:20;;;;;;;70.05;42.80;;;1.00;99.90;;;;;;4944207;29;20051;-59
2021/12/23 13:18:48;;;;;;;67.57;42.95;;;1.10;99.90;;;;;;4927040;29;20531;-58
2021/12/23 13:21:21;;;;;;;65.75;41.92;;;1.10;99.90;;;;;;4943645;28;20399;-59
2021/12/23 13:23:47;;;;;;;80.70;45.30;;;1.00;99.90;;;;;;4946010;29;20597;-62
2021/12/23 13:26:19;;;;;;;72.10;45.17;;;1.00;99.90;;;;;;4927420;28;20458;-59
2021/12/23 13:28:46;;;;;;;;;;;1.00;99.90;;;;;;4943408;28;20098;-58
2021/12/23 13:31:23;;;;;;;74.68;42.92;;;1.00;99.90;;;;;;4944763;28;19937;-58
2021/12/23 13:33:56;;;;;;;74.50;44.65;;;1.00;99.90;;;;;;4944086;29;20058;-58
2021/12/23 13:36:40;;;;;;;72.35;43.47;;;1.00;99.90;;;;;;4945029;28;20118;-58
2021/12/23 13:39:09;;;;;;;73.45;46.10;;;1.00;99.90;;;;;;4943303;29;20407;-58
2021/12/23 13:41:41;;;;;;;82.43;46.90;;;1.00;99.90;;;;;;4941856;29;20115;-58
2021/12/23 13:44:25;;;;;;;80.50;44.45;;;1.10;99.90;;;;;;4942711;29;20089;-59
2021/12/23 13:46:54;;;;;;;78.05;43.13;;;1.10;99.90;;;;;;4941872;29;20065;-58
2021/12/23 13:49:33;;;;;;;72.68;43.45;;;1.10;99.90;;;;;;4951793;28;20538;-59
2021/12/23 13:52:01;;;;;;;68.40;44.50;;;1.10;99.90;;;;;;4943592;28;20428;-59
2021/12/23 13:54:33;;;;;;;71.88;43.60;;;1.10;99.90;;;;;;4941949;28;20053;-58
2021/12/23 13:56:59;;;;;;;74.35;44.08;;;1.10;99.90;;;;;;4939437;28;20487;-59